Time;durP1;ratioP1;P1;durP2;ratioP2;P2;SDS_P1;SDS_P2;PMS_P1;PMS_P2;Temp;Humidity;BMP_temperature;BMP_pressure;BME280_temperature;BME280_humidity;BME280_pressure;Samples;Min_cycle;Max_cycle;Signal;HPM_P1;HPM_P2
2022/01/17 00:01:51;;;;;;;13.55;11.38;;;7.60;99.90;;;7.01;100.00;103186.94;4165444;28;20064;-71
2022/01/17 00:03:52;;;;;;;17.40;12.40;;;7.80;99.90;;;7.18;100.00;103193.09;4153755;28;20033;-71
2022/01/17 00:05:54;;;;;;;17.50;11.82;;;7.30;99.90;;;7.23;100.00;103184.97;4157978;28;20025;-71
2022/01/17 00:07:55;;;;;;;16.70;11.48;;;7.40;99.90;;;6.95;100.00;103180.22;4152335;28;20088;-71
2022/01/17 00:09:59;;;;;;;14.40;12.63;;;8.50;99.90;;;6.91;100.00;103178.66;4153661;28;20482;-71
2022/01/17 00:12:00;;;;;;;16.25;12.10;;;8.40;99.90;;;6.92;100.00;103195.25;4167256;28;20045;-71
2022/01/17 00:14:01;;;;;;;17.80;13.55;;;7.10;99.90;;;6.79;100.00;103204.63;4153709;28;20030;-71
2022/01/17 00:16:10;;;;;;;17.15;12.50;;;7.20;99.90;;;6.83;100.00;103200.94;4153698;28;20029;-71
2022/01/17 00:20:17;;;;;;;16.25;11.85;;;7.20;99.90;;;6.70;100.00;103198.03;4153623;28;20030;-72
2022/01/17 00:22:20;;;;;;;14.43;12.70;;;7.40;99.90;;;6.59;100.00;103193.28;4157120;28;20026;-72
2022/01/17 00:24:21;;;;;;;16.88;12.60;;;7.70;99.90;;;6.65;100.00;103197.41;4162258;28;20075;-71
2022/01/17 00:26:22;;;;;;;14.68;12.43;;;7.00;99.90;;;6.59;100.00;103197.69;4152172;28;20473;-71
2022/01/17 00:28:23;;;;;;;14.93;12.88;;;7.20;99.90;;;6.60;100.00;103202.00;4155696;28;20025;-71
2022/01/17 00:30:24;;;;;;;16.63;12.95;;;7.00;99.90;;;6.54;100.00;103197.88;4162059;28;20069;-71
2022/01/17 00:32:25;;;;;;;14.25;12.73;;;7.10;99.90;;;6.53;100.00;103206.69;4162010;28;20056;-72
2022/01/17 00:34:27;;;;;;;14.20;12.38;;;8.00;99.90;;;6.53;100.00;103206.69;4153412;28;20084;-71
2022/01/17 00:36:28;;;;;;;13.32;11.82;;;6.80;99.90;;;6.53;100.00;103211.06;4165055;28;20025;-71
2022/01/17 00:38:29;;;;;;;16.15;12.70;;;7.10;99.90;;;6.51;100.00;103203.25;4160083;28;20061;-71
2022/01/17 00:40:30;;;;;;;15.95;13.30;;;6.80;99.90;;;6.48;100.00;103202.56;4158717;28;20041;-71
2022/01/17 00:42:31;;;;;;;16.08;13.93;;;9.10;99.90;;;6.57;100.00;103204.78;4165388;28;20029;-71
2022/01/17 00:44:32;;;;;;;14.38;12.77;;;8.20;99.90;;;6.44;100.00;103204.47;4148891;28;20536;-71
2022/01/17 00:46:34;;;;;;;17.35;14.25;;;7.40;99.90;;;6.39;100.00;103203.81;4158399;28;20021;-71
2022/01/17 00:48:35;;;;;;;18.02;13.38;;;6.40;99.90;;;6.32;100.00;103215.50;4158622;28;20046;-71
2022/01/17 00:50:37;;;;;;;15.73;14.02;;;6.40;99.90;;;6.19;100.00;103203.84;4164300;28;20037;-71
2022/01/17 00:52:38;;;;;;;16.08;12.82;;;7.10;99.90;;;6.24;100.00;103211.53;4152360;28;20497;-71
2022/01/17 00:54:39;;;;;;;19.30;13.75;;;5.70;99.90;;;6.21;100.00;103196.81;4153169;28;20033;-71
2022/01/17 00:56:40;;;;;;;13.15;11.60;;;6.50;99.90;;;6.14;100.00;103218.94;4152961;28;20026;-71
2022/01/17 00:58:41;;;;;;;16.98;12.73;;;5.00;99.90;;;6.08;100.00;103211.34;4153079;28;20022;-71
2022/01/17 01:00:42;;;;;;;13.45;11.60;;;8.00;99.90;;;6.15;100.00;103206.69;4167227;28;20508;-71
2022/01/17 01:02:44;;;;;;;13.65;12.25;;;7.20;99.90;;;6.21;100.00;103211.66;4151668;28;20073;-71
2022/01/17 01:04:45;;;;;;;13.73;12.10;;;6.50;99.90;;;6.15;100.00;103218.03;4168049;28;20029;-71
2022/01/17 01:06:45;;;;;;;15.32;12.05;;;6.40;99.90;;;6.05;100.00;103211.47;4152621;28;20040;-71
2022/01/17 01:08:46;;;;;;;16.88;12.07;;;6.50;99.90;;;6.05;100.00;103211.47;4152603;28;20422;-71
2022/01/17 01:10:47;;;;;;;13.50;12.20;;;6.50;99.90;;;5.95;100.00;103205.78;4156797;28;20072;-71
2022/01/17 01:12:50;;;;;;;14.35;12.57;;;6.40;99.90;;;5.87;100.00;103222.75;4151774;28;20073;-71
2022/01/17 01:14:51;;;;;;;22.52;11.80;;;6.30;99.90;;;5.76;100.00;103219.72;4151658;28;20029;-71
2022/01/17 01:16:54;;;;;;;16.25;12.68;;;7.30;99.90;;;5.93;100.00;103212.88;4166707;28;20022;-71
2022/01/17 01:27:58;;;;;;;17.10;13.38;;;6.80;99.90;;;6.47;100.00;103214.81;4151745;28;20040;-71
2022/01/17 01:30:01;;;;;;;16.25;13.75;;;6.90;99.90;;;6.42;100.00;103211.53;4151201;28;20026;-72
2022/01/17 01:32:03;;;;;;;16.02;13.82;;;6.30;99.90;;;6.60;100.00;103213.34;4151492;28;20089;-71
2022/01/17 01:34:06;;;;;;;14.93;13.43;;;6.90;99.90;;;6.34;100.00;103226.78;4161229;28;20509;-71
2022/01/17 01:36:13;;;;;;;14.32;12.90;;;5.30;99.90;;;6.34;100.00;103224.16;4150630;28;20096;-71
2022/01/17 01:38:14;;;;;;;18.40;14.38;;;7.30;99.90;;;6.58;100.00;103224.81;4139283;28;20114;-72
2022/01/17 01:40:18;;;;;;;22.20;14.27;;;5.00;99.90;;;6.67;100.00;103230.50;4152315;28;20053;-72
2022/01/17 01:42:21;;;;;;;23.85;15.48;;;7.30;99.90;;;6.73;100.00;103225.88;4162336;28;20033;-71
2022/01/17 01:44:24;;;;;;;23.35;14.55;;;8.40;99.90;;;6.71;100.00;103233.84;4160189;28;20100;-72
2022/01/17 01:46:25;;;;;;;15.35;12.80;;;7.60;99.90;;;6.61;100.00;103228.16;4156234;28;20520;-71
2022/01/17 01:48:30;;;;;;;15.10;13.50;;;7.50;99.90;;;6.77;100.00;103227.44;4160736;28;20069;-71
2022/01/17 01:50:31;;;;;;;17.45;13.80;;;6.80;99.90;;;6.88;100.00;103231.28;4162975;28;20025;-71
2022/01/17 01:52:32;;;;;;;17.70;13.80;;;7.20;99.90;;;6.97;100.00;103233.47;4165968;28;20404;-71
2022/01/17 01:54:33;;;;;;;15.43;12.68;;;7.20;99.90;;;6.94;100.00;103232.75;4152423;28;20026;-71
2022/01/17 01:56:39;;;;;;;15.95;13.43;;;8.60;99.90;;;6.98;100.00;103231.72;4152551;28;20033;-71
2022/01/17 01:58:41;;;;;;;14.82;13.18;;;6.10;99.90;;;6.86;100.00;103219.16;4151057;28;20026;-71
2022/01/17 02:00:42;;;;;;;18.60;13.45;;;8.20;99.90;;;7.07;100.00;103229.50;4153483;28;20033;-71
2022/01/17 02:02:43;;;;;;;16.48;13.57;;;7.60;99.90;;;7.15;100.00;103229.13;4161959;28;20517;-71
2022/01/17 02:04:44;;;;;;;14.80;12.60;;;8.70;99.90;;;7.08;100.00;103222.47;4160105;28;20025;-71
2022/01/17 02:06:45;;;;;;;16.80;12.98;;;7.80;99.90;;;7.08;100.00;103232.94;4156164;28;20050;-71
2022/01/17 02:08:46;;;;;;;13.60;12.25;;;7.40;99.90;;;7.05;100.00;103228.69;4151911;28;20383;-71
2022/01/17 02:10:47;;;;;;;13.20;11.82;;;8.60;99.90;;;7.05;100.00;103222.59;4156473;28;20083;-71
2022/01/17 02:12:48;;;;;;;16.15;13.32;;;9.30;99.90;;;7.03;100.00;103224.47;4152294;28;20026;-71
2022/01/17 02:14:50;;;;;;;19.13;13.55;;;8.70;99.90;;;7.08;100.00;103232.94;4152249;28;20061;-71
2022/01/17 02:16:51;;;;;;;13.52;12.13;;;8.80;99.90;;;6.99;100.00;103222.91;4152057;28;20029;-71
2022/01/17 02:18:52;;;;;;;13.30;12.10;;;7.40;99.90;;;6.96;100.00;103220.44;4152198;28;20032;-71
2022/01/17 02:23:15;;;;;;;12.77;11.48;;;7.50;99.90;;;6.81;100.00;103224.59;4154472;28;20036;-72
2022/01/17 02:25:16;;;;;;;11.85;10.75;;;7.30;99.90;;;6.72;100.00;103217.16;4152250;28;20474;-71
2022/01/17 02:27:17;;;;;;;14.00;12.70;;;7.70;99.90;;;6.72;100.00;103230.28;4152202;28;20117;-71
2022/01/17 02:29:19;;;;;;;22.05;12.50;;;7.60;99.90;;;6.64;100.00;103214.91;4161535;28;20029;-71
2022/01/17 02:31:23;;;;;;;14.68;10.90;;;7.40;99.90;;;6.63;100.00;103226.31;4150809;28;20054;-71
2022/01/17 02:33:24;;;;;;;13.68;12.27;;;7.40;99.90;;;6.57;100.00;103226.56;4155941;28;20096;-71
2022/01/17 02:35:26;;;;;;;17.33;11.40;;;7.00;99.90;;;6.57;100.00;103221.34;4159629;28;20030;-71
2022/01/17 02:37:26;;;;;;;13.20;11.90;;;6.80;99.90;;;6.65;100.00;103234.13;4145316;28;20117;-71
2022/01/17 02:39:27;;;;;;;12.52;11.32;;;7.30;99.90;;;6.57;100.00;103220.50;4153941;28;20492;-71
2022/01/17 02:41:39;;;;;;;24.00;11.02;;;7.00;99.90;;;6.49;100.00;103225.22;4152067;28;20061;-71
2022/01/17 02:43:41;;;;;;;13.10;10.20;;;6.10;99.90;;;6.49;100.00;103227.84;4152089;28;20025;-71
2022/01/17 02:47:52;;;;;;;12.20;11.10;;;7.40;99.90;;;6.48;100.00;103220.94;4155568;28;20036;-71
2022/01/17 02:49:52;;;;;;;13.05;11.60;;;6.80;99.90;;;6.42;100.00;103216.78;4160482;28;20104;-71
2022/01/17 02:51:54;;;;;;;11.30;10.27;;;7.10;99.90;;;6.40;100.00;103218.63;4164376;28;20051;-71
2022/01/17 02:53:55;;;;;;;12.07;10.98;;;7.40;99.90;;;6.35;100.00;103210.13;4157690;28;20018;-72
2022/01/17 02:56:00;;;;;;;11.73;10.57;;;7.20;99.90;;;6.33;100.00;103216.38;4168250;28;20025;-71
2022/01/17 02:58:00;;;;;;;;;;;6.80;99.90;;;6.28;100.00;103218.31;4160823;28;20029;-71
2022/01/17 03:00:03;;;;;;;12.70;11.50;;;8.40;99.90;;;6.25;100.00;103218.47;4155109;28;19924;-71
2022/01/17 03:02:05;;;;;;;13.25;11.95;;;7.20;99.90;;;6.21;100.00;103236.13;4153731;28;20160;-71
2022/01/17 03:04:05;;;;;;;15.85;11.90;;;6.90;99.90;;;6.06;100.00;103224.50;4157955;28;20025;-71
2022/01/17 03:06:07;;;;;;;25.45;12.82;;;6.90;99.90;;;5.96;100.00;103215.34;4171075;28;20097;-71
2022/01/17 03:08:08;;;;;;;16.55;10.65;;;5.50;99.90;;;5.98;100.00;103216.13;4169944;28;20045;-71
2022/01/17 03:10:19;;;;;;;15.60;11.57;;;7.90;99.90;;;6.04;100.00;103215.00;4157709;28;20108;-71
2022/01/17 03:12:20;;;;;;;15.48;12.52;;;5.50;99.90;;;6.03;100.00;103223.81;4155005;28;20168;-71
2022/01/17 03:14:21;;;;;;;13.05;11.70;;;8.20;99.90;;;6.07;100.00;103223.59;4144270;28;20070;-71
2022/01/17 03:16:29;;;;;;;12.00;10.80;;;6.20;99.90;;;6.01;100.00;103220.38;4163969;28;20032;-71
2022/01/17 03:18:36;;;;;;;12.60;11.43;;;6.70;99.90;;;5.91;100.00;103213.84;4155596;28;20079;-71
2022/01/17 03:20:37;;;;;;;13.38;12.18;;;7.50;99.90;;;5.81;100.00;103221.22;4159585;28;20465;-71
2022/01/17 03:22:39;;;;;;;12.45;11.32;;;6.30;99.90;;;5.86;100.00;103232.38;4161644;28;20022;-71
2022/01/17 03:24:40;;;;;;;13.20;12.05;;;6.10;99.90;;;5.83;100.00;103226.38;4153358;28;20033;-71
2022/01/17 03:26:41;;;;;;;28.08;12.23;;;6.90;99.90;;;5.67;100.00;103230.56;4169207;28;20523;-71
2022/01/17 03:28:42;;;;;;;13.18;11.93;;;5.60;99.90;;;5.73;100.00;103235.53;4165502;28;20033;-71
2022/01/17 03:30:43;;;;;;;15.23;11.45;;;5.70;99.90;;;5.64;100.00;103235.94;4144654;28;20080;-71
2022/01/17 03:32:44;;;;;;;17.83;12.63;;;6.30;99.90;;;5.57;100.00;103233.56;4169771;28;20520;-72
2022/01/17 03:34:45;;;;;;;13.07;11.88;;;6.30;99.90;;;5.58;100.00;103226.56;4155349;28;20512;-71
2022/01/17 03:36:46;;;;;;;15.65;12.77;;;6.20;99.90;;;5.61;100.00;103236.91;4158437;28;20053;-71
2022/01/17 03:38:47;;;;;;;11.85;10.75;;;8.00;99.90;;;5.61;100.00;103242.16;4162512;28;20032;-71
2022/01/17 03:40:51;;;;;;;13.57;11.00;;;6.40;99.90;;;5.41;100.00;103236.84;4153337;28;20032;-71
2022/01/17 03:42:52;;;;;;;12.55;10.00;;;8.60;99.90;;;5.30;100.00;103234.69;4167306;28;20053;-71
2022/01/17 03:44:53;;;;;;;19.25;12.23;;;5.90;99.90;;;5.38;100.00;103244.81;4165691;28;20068;-71
2022/01/17 03:46:54;;;;;;;13.88;12.40;;;6.10;99.90;;;5.38;100.00;103236.97;4161548;28;20041;-71
2022/01/17 03:48:55;;;;;;;22.05;14.70;;;7.40;99.90;;;5.34;100.00;103238.88;4157473;28;20045;-71
2022/01/17 03:50:56;;;;;;;20.90;11.73;;;5.80;99.90;;;5.21;100.00;103242.88;4167758;28;20445;-71
2022/01/17 03:52:58;;;;;;;12.57;11.38;;;6.30;99.90;;;5.23;100.00;103248.03;4157911;28;20075;-71
2022/01/17 03:54:59;;;;;;;13.13;11.50;;;6.10;99.90;;;5.27;100.00;103242.66;4170622;28;20026;-71
2022/01/17 03:57:00;;;;;;;16.15;11.18;;;5.70;99.90;;;5.23;100.00;103240.19;4141736;28;20439;-71
2022/01/17 03:59:01;;;;;;;11.65;10.55;;;5.90;99.90;;;5.29;100.00;103246.03;4153495;28;20389;-71
2022/01/17 04:01:03;;;;;;;11.98;10.82;;;5.70;99.90;;;5.35;100.00;103240.56;4157240;28;20053;-71
2022/01/17 04:03:04;;;;;;;12.32;11.13;;;6.10;99.90;;;5.29;100.00;103245.19;4152905;28;20022;-71
2022/01/17 04:05:06;;;;;;;12.48;11.27;;;5.80;99.90;;;5.26;100.00;103251.41;4152721;28;20034;-71
2022/01/17 04:07:07;;;;;;;12.57;11.48;;;6.10;99.90;;;5.26;100.00;103250.53;4154729;28;20022;-71
2022/01/17 04:09:09;;;;;;;12.73;11.40;;;6.80;99.90;;;5.27;100.00;103255.72;4148341;28;20113;-71
2022/01/17 04:11:12;;;;;;;13.25;11.35;;;6.20;99.90;;;5.18;100.00;103260.47;4144271;28;20033;-71
2022/01/17 04:13:13;;;;;;;13.32;11.15;;;5.80;99.90;;;4.91;100.00;103249.31;4147350;28;20069;-71
2022/01/17 04:15:15;;;;;;;13.07;11.80;;;5.60;99.90;;;4.99;100.00;103255.09;4153744;28;20034;-71
2022/01/17 04:17:16;;;;;;;11.68;10.57;;;3.70;99.90;;;4.97;100.00;103256.91;4152649;28;20087;-71
2022/01/17 04:19:19;;;;;;;10.85;9.95;;;4.50;99.90;;;5.00;100.00;103256.81;4153800;28;20038;-71
2022/01/17 04:21:20;;;;;;;10.45;9.52;;;5.40;99.90;;;4.84;100.00;103248.69;4163805;28;20583;-71
2022/01/17 04:23:21;;;;;;;11.93;10.73;;;5.50;99.90;;;4.76;100.00;103255.97;4154982;28;20026;-71
2022/01/17 04:25:25;;;;;;;10.20;9.02;;;6.90;99.90;;;4.78;100.00;103258.53;4157626;28;20029;-71
2022/01/17 04:27:26;;;;;;;;;;;5.10;99.90;;;4.69;100.00;103262.31;4152981;28;20030;-71
2022/01/17 04:29:27;;;;;;;10.70;9.75;;;7.00;99.90;;;4.70;100.00;103264.03;4153532;28;19913;-71
2022/01/17 04:31:27;;;;;;;11.85;10.65;;;5.50;99.90;;;4.63;100.00;103272.19;4167658;28;20083;-71
2022/01/17 04:33:28;;;;;;;19.45;10.52;;;7.10;99.90;;;4.49;100.00;103267.44;4153642;28;20076;-71
2022/01/17 04:35:30;;;;;;;11.32;10.30;;;7.10;99.90;;;4.50;100.00;103263.06;4152033;28;20025;-71
2022/01/17 04:37:31;;;;;;;11.07;10.18;;;5.00;99.90;;;4.58;100.00;103271.47;4153507;28;20079;-71
2022/01/17 04:39:32;;;;;;;11.15;9.20;;;5.70;99.90;;;4.60;100.00;103277.50;4167313;28;20030;-71
2022/01/17 04:41:39;;;;;;;11.30;10.30;;;5.10;99.90;;;4.58;100.00;103271.47;4153549;28;20113;-71
2022/01/17 04:45:41;;;;;;;10.32;9.43;;;4.20;99.90;;;4.61;100.00;103268.75;4164638;28;20431;-71
2022/01/17 04:47:51;;;;;;;12.40;10.70;;;5.20;99.90;;;4.51;100.00;103268.22;4165265;28;20032;-71
2022/01/17 04:49:52;;;;;;;16.83;10.95;;;8.10;99.90;;;4.30;100.00;103262.00;4142137;28;20037;-71
2022/01/17 04:51:54;;;;;;;14.00;10.70;;;5.20;99.90;;;4.32;100.00;103260.22;4162756;28;20021;-71
2022/01/17 04:54:18;;;;;;;11.93;10.80;;;4.90;99.90;;;4.40;100.00;103260.78;4169647;28;20056;-71
2022/01/17 04:56:16;;;;;;;15.63;11.73;;;6.50;99.90;;;4.33;100.00;103267.13;4158627;28;20022;-71
2022/01/17 04:58:18;;;;;;;15.10;11.40;;;3.80;99.90;;;4.27;100.00;103280.41;4143223;28;20158;-71
2022/01/17 05:00:22;;;;;;;16.50;12.65;;;5.10;99.90;;;4.25;100.00;103274.38;4151928;28;20032;-71
2022/01/17 05:02:23;;;;;;;17.42;11.82;;;3.80;99.90;;;4.36;100.00;103280.06;4151770;28;20048;-71
2022/01/17 05:04:24;;;;;;;18.35;12.00;;;6.40;99.90;;;4.46;100.00;103271.00;4153156;28;20105;-71
2022/01/17 05:06:25;;;;;;;13.57;12.15;;;5.10;99.90;;;4.62;100.00;103275.69;4160348;28;20099;-71
2022/01/17 05:08:26;;;;;;;13.20;11.85;;;4.20;99.90;;;4.67;100.00;103278.97;4147197;28;20057;-71
2022/01/17 05:10:27;;;;;;;14.90;11.93;;;6.20;99.90;;;4.63;100.00;103266.94;4166001;28;20103;-71
2022/01/17 05:12:28;;;;;;;11.30;10.27;;;4.90;99.90;;;4.57;100.00;103270.59;4163152;28;20044;-71
2022/01/17 05:14:29;;;;;;;12.65;10.60;;;5.60;99.90;;;4.59;100.00;103265.34;4151846;28;20108;-71
2022/01/17 05:16:35;;;;;;;11.05;10.05;;;6.60;99.90;;;4.58;100.00;103256.66;4152939;28;20402;-71
2022/01/17 05:20:39;;;;;;;12.13;10.82;;;5.30;99.90;;;4.69;100.00;103264.13;4151800;28;20033;-71
2022/01/17 05:22:41;;;;;;;11.70;10.60;;;5.30;99.90;;;4.81;100.00;103271.47;4155946;28;20049;-71
2022/01/17 05:24:43;;;;;;;11.38;10.30;;;4.80;99.90;;;4.75;100.00;103263.88;4164421;28;20063;-71
2022/01/17 05:26:44;;;;;;;12.35;11.07;;;5.30;99.90;;;4.74;100.00;103262.16;4151412;28;20057;-70
2022/01/17 05:28:44;;;;;;;12.57;11.48;;;6.70;99.90;;;4.76;100.00;103257.72;4157582;28;20029;-70
2022/01/17 05:30:45;;;;;;;11.10;10.00;;;5.90;99.90;;;4.85;100.00;103265.22;4158620;28;20030;-70
2022/01/17 05:32:48;;;;;;;10.75;9.75;;;5.90;99.90;;;4.87;100.00;103263.41;4151504;28;20061;-70
2022/01/17 05:34:49;;;;;;;13.77;10.75;;;5.70;99.90;;;4.75;100.00;103263.88;4155016;28;20560;-70
2022/01/17 05:36:50;;;;;;;12.75;10.77;;;5.80;99.90;;;4.84;100.00;103264.38;4145453;28;20034;-70
2022/01/17 05:38:52;;;;;;;11.80;10.70;;;5.30;99.90;;;4.92;100.00;103251.88;4152589;28;20061;-70
2022/01/17 05:40:53;;;;;;;11.30;10.35;;;5.40;99.90;;;5.03;100.00;103261.91;4157126;28;20030;-73
2022/01/17 05:42:54;;;;;;;11.40;10.30;;;4.70;99.90;;;4.93;100.00;103252.69;4161269;28;20036;-73
2022/01/17 05:44:55;;;;;;;12.40;11.30;;;7.50;99.90;;;4.96;100.00;103253.44;4156912;28;20033;-73
2022/01/17 05:46:56;;;;;;;11.32;10.32;;;5.70;99.90;;;5.05;100.00;103261.88;4152600;28;20402;-73
2022/01/17 05:48:57;;;;;;;12.15;10.93;;;6.90;99.90;;;4.62;100.00;103257.38;4151279;28;20033;-73
2022/01/17 05:50:58;;;;;;;12.32;10.63;;;5.80;99.90;;;4.89;100.00;103257.22;4152078;28;20029;-73
2022/01/17 05:52:59;;;;;;;12.32;11.07;;;5.80;99.90;;;5.02;100.00;103257.59;4152572;28;20049;-73
2022/01/17 05:55:00;;;;;;;12.27;9.40;;;5.70;99.90;;;5.20;100.00;103269.09;4152520;28;20030;-73
2022/01/17 05:57:02;;;;;;;11.02;9.93;;;7.70;99.90;;;5.01;100.00;103276.81;4152445;28;20105;-73
2022/01/17 05:59:03;;;;;;;10.40;9.50;;;6.20;99.90;;;4.95;100.00;103277.06;4166693;28;20014;-73
2022/01/17 06:01:05;;;;;;;10.82;9.73;;;5.50;99.90;;;4.86;100.00;103282.63;4151280;28;20145;-73
2022/01/17 06:03:06;;;;;;;11.70;9.73;;;7.90;99.90;;;4.61;100.00;103287.03;4151218;28;20014;-73
2022/01/17 06:05:08;;;;;;;11.32;10.32;;;5.60;99.90;;;4.72;100.00;103270.06;4152386;28;20124;-73
2022/01/17 06:07:09;;;;;;;11.98;10.88;;;5.50;99.90;;;4.84;100.00;103282.66;4151966;28;20494;-73
2022/01/17 06:09:10;;;;;;;11.05;10.05;;;5.50;99.90;;;4.85;100.00;103280.91;4139560;28;20064;-73
2022/01/17 06:11:11;;;;;;;12.57;10.35;;;5.50;99.90;;;4.85;100.00;103281.78;4167367;28;20025;-73
2022/01/17 06:13:12;;;;;;;13.57;10.98;;;5.60;99.90;;;4.81;100.00;103280.16;4150975;28;20120;-73
2022/01/17 06:15:13;;;;;;;12.30;10.75;;;5.10;99.90;;;4.81;100.00;103279.31;4152112;28;20485;-73
2022/01/17 06:17:14;;;;;;;10.73;9.73;;;5.40;99.90;;;4.89;100.00;103285.13;4156199;28;20481;-73
2022/01/17 06:19:16;;;;;;;13.52;12.13;;;5.20;99.90;;;4.89;100.00;103287.75;4152217;28;20030;-73
2022/01/17 06:21:16;;;;;;;15.13;12.32;;;5.70;99.90;;;5.00;100.00;103278.59;4152823;28;20081;-73
2022/01/17 06:23:18;;;;;;;22.52;13.45;;;5.80;99.90;;;5.06;100.00;103287.09;4136041;28;20026;-73
2022/01/17 06:25:19;;;;;;;21.80;13.98;;;5.10;99.90;;;5.04;100.00;103289.78;4167438;28;20030;-73
2022/01/17 06:27:20;;;;;;;14.63;11.93;;;7.60;99.90;;;5.20;100.00;103293.50;4158849;28;20033;-73
2022/01/17 06:29:21;;;;;;;16.67;12.68;;;6.20;99.90;;;5.26;100.00;103302.88;4134603;28;20121;-73
2022/01/17 06:31:22;;;;;;;19.13;11.82;;;6.10;99.90;;;5.09;100.00;103300.91;4150481;28;20038;-73
2022/01/17 06:33:23;;;;;;;16.80;12.07;;;6.80;99.90;;;5.01;100.00;103288.16;4155345;28;20163;-73
2022/01/17 06:35:24;;;;;;;19.10;11.73;;;6.20;99.90;;;5.01;100.00;103295.13;4134356;28;20050;-73
2022/01/17 06:37:25;;;;;;;14.40;11.30;;;6.40;99.90;;;5.15;100.00;103294.59;4152070;28;20032;-73
2022/01/17 06:39:26;;;;;;;12.65;11.40;;;5.90;99.90;;;5.25;100.00;103296.81;4164426;28;20108;-70
2022/01/17 06:41:27;;;;;;;21.60;12.48;;;6.00;99.90;;;5.18;100.00;103297.94;4150850;28;20045;-70
2022/01/17 06:43:28;;;;;;;12.52;11.23;;;5.40;99.90;;;5.19;100.00;103294.44;4152059;28;20029;-70
2022/01/17 06:45:29;;;;;;;12.18;11.07;;;5.90;99.90;;;5.21;100.00;103295.22;4162636;28;20108;-70
2022/01/17 06:47:36;;;;;;;12.25;10.90;;;5.90;99.90;;;5.21;100.00;103302.22;4167882;28;20029;-70
2022/01/17 06:49:37;;;;;;;45.42;13.20;;;5.90;99.90;;;5.08;100.00;103312.28;4154846;28;20053;-71
2022/01/17 06:51:38;;;;;;;48.58;13.13;;;8.50;99.90;;;5.09;100.00;103305.28;4159402;28;20029;-71
2022/01/17 06:53:41;;;;;;;20.95;11.85;;;6.60;99.90;;;5.11;100.00;103304.31;4168246;28;20030;-71
2022/01/17 06:55:42;;;;;;;35.75;12.45;;;3.20;99.90;;;5.14;100.00;103313.84;4152466;28;20583;-71
2022/01/17 06:57:43;;;;;;;45.45;12.90;;;7.70;99.90;;;5.00;100.00;103306.50;4156472;28;20108;-70
2022/01/17 06:59:44;;;;;;;62.13;13.38;;;6.90;99.90;;;5.01;100.00;103309.06;4160726;28;20053;-70
2022/01/17 07:01:45;;;;;;;29.30;13.35;;;5.80;99.90;;;5.13;100.00;103318.22;4144874;28;20045;-71
2022/01/17 07:03:48;;;;;;;36.20;12.98;;;5.60;99.90;;;5.13;100.00;103317.34;4151788;28;20026;-71
2022/01/17 07:05:49;;;;;;;25.95;12.73;;;6.00;99.90;;;5.08;100.00;103301.81;4150385;28;20025;-71
2022/01/17 07:07:50;;;;;;;14.00;12.18;;;6.40;99.90;;;5.20;100.00;103319.66;4158044;28;20056;-71
2022/01/17 07:09:51;;;;;;;13.60;12.27;;;4.60;99.90;;;5.22;100.00;103333.56;4162323;28;20033;-71
2022/01/17 07:11:52;;;;;;;12.48;11.38;;;5.80;99.90;;;5.14;100.00;103317.28;4168093;28;20088;-71
2022/01/17 07:13:53;;;;;;;32.65;12.02;;;5.80;99.90;;;5.03;100.00;103340.38;4163234;28;20054;-71
2022/01/17 07:15:54;;;;;;;39.75;12.60;;;7.50;99.90;;;5.05;100.00;103362.09;4153123;28;20064;-71
2022/01/17 07:17:55;;;;;;;30.70;12.85;;;6.60;99.90;;;5.18;100.00;103352.03;4151856;28;20497;-71
2022/01/17 07:19:56;;;;;;;14.57;11.57;;;6.30;99.90;;;5.25;100.00;103359.63;4163615;28;20104;-71
2022/01/17 07:21:56;;;;;;;15.95;12.25;;;5.80;99.90;;;5.34;100.00;103374.97;4149864;28;20134;-71
2022/01/17 07:23:57;;;;;;;31.48;13.50;;;7.60;99.90;;;5.24;100.00;103393.69;4156762;28;20037;-71
2022/01/17 07:25:58;;;;;;;26.15;12.43;;;8.20;99.90;;;5.21;100.00;103393.78;4168077;28;20036;-71
2022/01/17 07:27:59;;;;;;;13.30;12.05;;;4.60;99.90;;;5.29;100.00;103389.13;4153996;28;20026;-71
2022/01/17 07:30:00;;;;;;;13.98;12.55;;;5.90;99.90;;;5.32;100.00;103376.78;4163567;28;20096;-71
2022/01/17 07:32:02;;;;;;;15.18;13.48;;;5.00;99.90;;;5.43;100.00;103374.63;4156446;28;20389;-71
2022/01/17 07:34:04;;;;;;;13.45;12.05;;;6.30;99.90;;;5.38;100.00;103350.38;4159559;28;20058;-71
2022/01/17 07:36:06;;;;;;;31.95;13.95;;;5.30;99.90;;;5.26;100.00;103340.38;4136782;28;20056;-72
2022/01/17 07:38:07;;;;;;;11.35;10.27;;;6.70;99.90;;;5.64;100.00;103341.53;4154445;28;20405;-71
2022/01/17 07:40:09;;;;;;;10.68;9.68;;;6.10;99.90;;;5.72;100.00;103346.44;4159410;28;20428;-71
2022/01/17 07:42:10;;;;;;;24.45;10.70;;;6.30;99.90;;;5.48;100.00;103335.16;4153130;28;20041;-71
2022/01/17 07:44:19;;;;;;;11.38;10.27;;;6.80;99.90;;;5.48;100.00;103346.50;4153118;28;20057;-71
2022/01/17 07:46:47;;;;;;;13.80;10.50;;;7.80;99.90;;;5.50;100.00;103352.53;4154467;28;20572;-71
2022/01/17 07:49:10;;;;;;;11.50;10.38;;;8.10;99.90;;;5.54;100.00;103356.72;4145400;28;20121;-71
2022/01/17 07:51:11;;;;;;;11.05;10.05;;;6.10;99.90;;;5.52;100.00;103348.09;4139173;28;20034;-72
2022/01/17 07:53:13;;;;;;;16.48;11.05;;;6.50;99.90;;;5.43;100.00;103348.44;4153081;28;20041;-71
2022/01/17 07:55:16;;;;;;;22.33;11.60;;;5.50;99.90;;;5.43;100.00;103351.06;4152719;28;20045;-72
2022/01/17 07:57:18;;;;;;;20.63;10.95;;;7.20;99.90;;;5.56;100.00;103360.13;4152748;28;20033;-71
2022/01/17 07:59:19;;;;;;;21.35;10.82;;;6.20;99.90;;;5.66;100.00;103351.91;4157001;28;20021;-72
2022/01/17 08:01:20;;;;;;;21.45;10.15;;;6.20;99.90;;;5.77;100.00;103357.56;4160444;28;20072;-71
2022/01/17 08:03:21;;;;;;;12.57;9.90;;;5.90;99.90;;;5.65;100.00;103352.81;4170391;28;20492;-71
2022/01/17 08:05:23;;;;;;;15.57;10.63;;;5.90;99.90;;;5.43;100.00;103350.22;4169991;28;20587;-71
2022/01/17 08:07:25;;;;;;;34.00;10.45;;;6.70;99.90;;;5.32;100.00;103340.13;4165103;28;20026;-71
2022/01/17 08:09:31;;;;;;;14.90;10.02;;;8.60;99.90;;;5.39;100.00;103346.84;4143458;28;20049;-70
2022/01/17 08:11:33;;;;;;;12.75;10.02;;;6.10;99.90;;;5.50;100.00;103352.53;4157540;28;20104;-73
2022/01/17 08:13:34;;;;;;;11.30;10.30;;;6.00;99.90;;;5.55;100.00;103355.78;4153808;28;20060;-73
2022/01/17 08:15:37;;;;;;;11.07;9.73;;;6.90;99.90;;;5.71;100.00;103361.28;4157264;28;20037;-73
2022/01/17 08:17:39;;;;;;;11.30;10.30;;;6.40;99.90;;;5.69;100.00;103359.66;4152489;28;20490;-73
2022/01/17 08:19:40;;;;;;;11.93;10.75;;;6.60;99.90;;;5.68;100.00;103376.25;4164880;28;20025;-73
2022/01/17 08:21:41;;;;;;;11.27;10.18;;;5.80;99.90;;;5.66;100.00;103368.50;4168119;28;20033;-73
2022/01/17 08:23:42;;;;;;;10.57;9.68;;;6.70;99.90;;;5.71;100.00;103360.44;4157239;28;20029;-73
2022/01/17 08:25:43;;;;;;;15.30;10.35;;;6.60;99.90;;;5.71;100.00;103373.53;4136021;28;20516;-73
2022/01/17 08:27:44;;;;;;;16.55;11.18;;;8.70;99.90;;;5.64;100.00;103366.84;4152282;28;20033;-73
2022/01/17 08:29:45;;;;;;;15.10;10.98;;;4.80;99.90;;;5.73;100.00;103362.09;4166684;28;20033;-72
2022/01/17 08:31:47;;;;;;;11.30;10.25;;;6.20;99.90;;;5.78;100.00;103373.25;4152180;28;20033;-73
2022/01/17 08:33:48;;;;;;;11.80;10.60;;;6.40;99.90;;;5.83;100.00;103365.19;4153425;28;20036;-73
2022/01/17 08:35:49;;;;;;;13.35;10.80;;;7.70;99.90;;;5.76;100.00;103353.28;4163052;28;20029;-73
2022/01/17 08:37:50;;;;;;;11.65;10.38;;;6.40;99.90;;;5.96;100.00;103364.69;4149881;28;20026;-73
2022/01/17 08:39:52;;;;;;;15.15;11.75;;;5.90;99.90;;;6.18;100.00;103371.66;4168613;28;20092;-73
2022/01/17 08:41:54;;;;;;;11.43;10.32;;;7.00;99.90;;;6.15;100.00;103366.53;4160920;28;20115;-73
2022/01/17 08:43:55;;;;;;;13.65;11.45;;;5.90;99.90;;;6.12;100.00;103363.13;4151948;28;20149;-73